sensor_id;sensor_type;location;lat;lon;timestamp;P1;durP1;ratioP1;P2;durP2;ratioP2
4148;SDS011;2088;51.032;7.082;2023-04-24T00:00:45;1.07;;;0.90;;
4148;SDS011;2088;51.032;7.082;2023-04-24T00:03:12;0.80;;;0.70;;
4148;SDS011;2088;51.032;7.082;2023-04-24T00:05:39;0.70;;;0.60;;
4148;SDS011;2088;51.032;7.082;2023-04-24T00:08:06;1.00;;;0.80;;
4148;SDS011;2088;51.032;7.082;2023-04-24T00:10:33;2.20;;;0.70;;
4148;SDS011;2088;51.032;7.082;2023-04-24T00:13:00;1.00;;;0.90;;
4148;SDS011;2088;51.032;7.082;2023-04-24T00:15:28;0.70;;;0.60;;
4148;SDS011;2088;51.032;7.082;2023-04-24T00:17:56;0.90;;;0.80;;
4148;SDS011;2088;51.032;7.082;2023-04-24T00:20:23;0.80;;;0.70;;
4148;SDS011;2088;51.032;7.082;2023-04-24T00:22:50;1.10;;;0.70;;
4148;SDS011;2088;51.032;7.082;2023-04-24T00:25:17;0.80;;;0.70;;
4148;SDS011;2088;51.032;7.082;2023-04-24T00:27:44;0.83;;;0.83;;
4148;SDS011;2088;51.032;7.082;2023-04-24T00:30:11;0.80;;;0.63;;
4148;SDS011;2088;51.032;7.082;2023-04-24T00:32:39;2.37;;;1.67;;
4148;SDS011;2088;51.032;7.082;2023-04-24T00:35:07;0.93;;;0.87;;
4148;SDS011;2088;51.032;7.082;2023-04-24T00:37:34;0.80;;;0.70;;
4148;SDS011;2088;51.032;7.082;2023-04-24T00:40:01;1.10;;;1.00;;
4148;SDS011;2088;51.032;7.082;2023-04-24T00:42:28;1.07;;;0.90;;
4148;SDS011;2088;51.032;7.082;2023-04-24T00:44:55;1.40;;;0.83;;
4148;SDS011;2088;51.032;7.082;2023-04-24T00:47:23;0.93;;;0.83;;
4148;SDS011;2088;51.032;7.082;2023-04-24T00:49:51;1.10;;;1.00;;
4148;SDS011;2088;51.032;7.082;2023-04-24T00:52:18;1.90;;;1.13;;
4148;SDS011;2088;51.032;7.082;2023-04-24T00:54:49;0.90;;;0.90;;
4148;SDS011;2088;51.032;7.082;2023-04-24T00:57:16;1.20;;;0.97;;
4148;SDS011;2088;51.032;7.082;2023-04-24T00:59:43;1.00;;;0.90;;
4148;SDS011;2088;51.032;7.082;2023-04-24T01:02:11;1.10;;;1.00;;
4148;SDS011;2088;51.032;7.082;2023-04-24T01:04:38;1.70;;;1.13;;
4148;SDS011;2088;51.032;7.082;2023-04-24T01:07:06;1.40;;;1.30;;
4148;SDS011;2088;51.032;7.082;2023-04-24T01:09:36;1.30;;;1.13;;
4148;SDS011;2088;51.032;7.082;2023-04-24T01:12:03;1.20;;;0.80;;
4148;SDS011;2088;51.032;7.082;2023-04-24T01:14:30;3.07;;;0.83;;
4148;SDS011;2088;51.032;7.082;2023-04-24T01:16:57;1.10;;;0.80;;
4148;SDS011;2088;51.032;7.082;2023-04-24T01:19:25;3.27;;;1.20;;
4148;SDS011;2088;51.032;7.082;2023-04-24T01:21:53;2.97;;;1.33;;
4148;SDS011;2088;51.032;7.082;2023-04-24T01:24:21;1.30;;;1.00;;
4148;SDS011;2088;51.032;7.082;2023-04-24T01:26:48;2.03;;;1.20;;
4148;SDS011;2088;51.032;7.082;2023-04-24T01:29:16;1.80;;;1.23;;
4148;SDS011;2088;51.032;7.082;2023-04-24T01:31:43;3.07;;;1.70;;
4148;SDS011;2088;51.032;7.082;2023-04-24T01:34:10;1.73;;;1.00;;
4148;SDS011;2088;51.032;7.082;2023-04-24T01:36:37;1.73;;;1.10;;
4148;SDS011;2088;51.032;7.082;2023-04-24T01:39:05;3.37;;;1.30;;
4148;SDS011;2088;51.032;7.082;2023-04-24T01:41:33;5.43;;;1.43;;
4148;SDS011;2088;51.032;7.082;2023-04-24T01:44:01;2.43;;;1.00;;
4148;SDS011;2088;51.032;7.082;2023-04-24T01:46:28;19.80;;;1.60;;
4148;SDS011;2088;51.032;7.082;2023-04-24T01:48:56;1.90;;;1.53;;
4148;SDS011;2088;51.032;7.082;2023-04-24T01:51:25;2.17;;;1.83;;
4148;SDS011;2088;51.032;7.082;2023-04-24T01:53:53;2.13;;;1.93;;
4148;SDS011;2088;51.032;7.082;2023-04-24T01:56:20;2.53;;;2.03;;
4148;SDS011;2088;51.032;7.082;2023-04-24T01:58:49;2.10;;;1.90;;
4148;SDS011;2088;51.032;7.082;2023-04-24T02:01:17;3.50;;;2.50;;
4148;SDS011;2088;51.032;7.082;2023-04-24T02:03:45;2.40;;;1.80;;
4148;SDS011;2088;51.032;7.082;2023-04-24T02:06:12;3.07;;;2.00;;
4148;SDS011;2088;51.032;7.082;2023-04-24T02:08:39;4.23;;;1.90;;
4148;SDS011;2088;51.032;7.082;2023-04-24T02:11:06;3.50;;;2.97;;
4148;SDS011;2088;51.032;7.082;2023-04-24T02:13:33;3.20;;;2.43;;
4148;SDS011;2088;51.032;7.082;2023-04-24T02:16:01;6.37;;;3.30;;
4148;SDS011;2088;51.032;7.082;2023-04-24T02:18:28;3.53;;;2.37;;
4148;SDS011;2088;51.032;7.082;2023-04-24T02:20:55;3.63;;;2.40;;
4148;SDS011;2088;51.032;7.082;2023-04-24T02:23:22;3.90;;;3.00;;
4148;SDS011;2088;51.032;7.082;2023-04-24T02:25:50;3.87;;;2.83;;
4148;SDS011;2088;51.032;7.082;2023-04-24T02:28:18;3.93;;;3.50;;
4148;SDS011;2088;51.032;7.082;2023-04-24T02:30:45;5.60;;;3.60;;
4148;SDS011;2088;51.032;7.082;2023-04-24T02:33:13;3.50;;;3.20;;
4148;SDS011;2088;51.032;7.082;2023-04-24T02:35:40;7.73;;;3.00;;
4148;SDS011;2088;51.032;7.082;2023-04-24T02:38:07;4.80;;;3.07;;
4148;SDS011;2088;51.032;7.082;2023-04-24T02:40:34;4.37;;;3.33;;
4148;SDS011;2088;51.032;7.082;2023-04-24T02:43:01;5.60;;;3.47;;
4148;SDS011;2088;51.032;7.082;2023-04-24T02:45:28;7.47;;;3.67;;
4148;SDS011;2088;51.032;7.082;2023-04-24T02:47:55;5.07;;;3.83;;
4148;SDS011;2088;51.032;7.082;2023-04-24T02:50:24;7.23;;;4.10;;
4148;SDS011;2088;51.032;7.082;2023-04-24T02:52:51;9.37;;;3.73;;
4148;SDS011;2088;51.032;7.082;2023-04-24T02:55:18;10.80;;;3.60;;
4148;SDS011;2088;51.032;7.082;2023-04-24T02:57:45;4.73;;;4.00;;
4148;SDS011;2088;51.032;7.082;2023-04-24T03:00:12;5.17;;;3.40;;
4148;SDS011;2088;51.032;7.082;2023-04-24T03:02:39;3.27;;;2.77;;
4148;SDS011;2088;51.032;7.082;2023-04-24T03:05:07;8.83;;;3.80;;
4148;SDS011;2088;51.032;7.082;2023-04-24T03:07:38;5.10;;;3.47;;
4148;SDS011;2088;51.032;7.082;2023-04-24T03:10:05;11.37;;;4.10;;
4148;SDS011;2088;51.032;7.082;2023-04-24T03:12:33;4.37;;;3.10;;
4148;SDS011;2088;51.032;7.082;2023-04-24T03:15:00;5.30;;;3.33;;
4148;SDS011;2088;51.032;7.082;2023-04-24T03:17:27;4.50;;;3.40;;
4148;SDS011;2088;51.032;7.082;2023-04-24T03:19:54;4.23;;;3.33;;
4148;SDS011;2088;51.032;7.082;2023-04-24T03:22:21;9.63;;;3.43;;
4148;SDS011;2088;51.032;7.082;2023-04-24T03:24:49;11.90;;;4.47;;
4148;SDS011;2088;51.032;7.082;2023-04-24T03:27:16;7.07;;;4.13;;
4148;SDS011;2088;51.032;7.082;2023-04-24T03:29:43;6.70;;;4.30;;
4148;SDS011;2088;51.032;7.082;2023-04-24T03:32:10;8.10;;;4.47;;
4148;SDS011;2088;51.032;7.082;2023-04-24T03:34:37;5.87;;;4.10;;
4148;SDS011;2088;51.032;7.082;2023-04-24T03:37:04;5.50;;;4.50;;
4148;SDS011;2088;51.032;7.082;2023-04-24T03:39:31;5.33;;;4.03;;
4148;SDS011;2088;51.032;7.082;2023-04-24T03:42:00;4.93;;;4.43;;
4148;SDS011;2088;51.032;7.082;2023-04-24T03:44:27;11.23;;;4.43;;
4148;SDS011;2088;51.032;7.082;2023-04-24T03:46:54;7.80;;;5.07;;
4148;SDS011;2088;51.032;7.082;2023-04-24T03:49:21;7.37;;;4.80;;
4148;SDS011;2088;51.032;7.082;2023-04-24T03:51:48;6.53;;;4.20;;
4148;SDS011;2088;51.032;7.082;2023-04-24T03:54:15;4.40;;;4.00;;
4148;SDS011;2088;51.032;7.082;2023-04-24T03:56:42;6.10;;;4.83;;
4148;SDS011;2088;51.032;7.082;2023-04-24T03:59:11;6.73;;;4.33;;
4148;SDS011;2088;51.032;7.082;2023-04-24T04:01:38;8.60;;;3.97;;
4148;SDS011;2088;51.032;7.082;2023-04-24T04:04:05;4.77;;;3.63;;
4148;SDS011;2088;51.032;7.082;2023-04-24T04:06:33;7.73;;;4.23;;
4148;SDS011;2088;51.032;7.082;2023-04-24T04:09:01;4.90;;;3.77;;
4148;SDS011;2088;51.032;7.082;2023-04-24T04:11:28;5.03;;;3.33;;
4148;SDS011;2088;51.032;7.082;2023-04-24T04:13:55;6.50;;;4.13;;
4148;SDS011;2088;51.032;7.082;2023-04-24T04:16:24;5.40;;;3.93;;
4148;SDS011;2088;51.032;7.082;2023-04-24T04:18:51;5.83;;;4.20;;
4148;SDS011;2088;51.032;7.082;2023-04-24T04:21:18;4.97;;;3.63;;
4148;SDS011;2088;51.032;7.082;2023-04-24T04:23:45;5.83;;;3.50;;
4148;SDS011;2088;51.032;7.082;2023-04-24T04:26:12;6.03;;;4.07;;
4148;SDS011;2088;51.032;7.082;2023-04-24T04:28:39;6.83;;;4.17;;
4148;SDS011;2088;51.032;7.082;2023-04-24T04:31:06;12.60;;;4.17;;
4148;SDS011;2088;51.032;7.082;2023-04-24T04:33:35;5.37;;;3.30;;
4148;SDS011;2088;51.032;7.082;2023-04-24T04:36:03;4.60;;;4.03;;
4148;SDS011;2088;51.032;7.082;2023-04-24T04:38:30;6.73;;;3.97;;
4148;SDS011;2088;51.032;7.082;2023-04-24T04:40:57;4.40;;;3.47;;
4148;SDS011;2088;51.032;7.082;2023-04-24T04:43:24;3.83;;;3.30;;
4148;SDS011;2088;51.032;7.082;2023-04-24T04:45:51;4.90;;;3.87;;
4148;SDS011;2088;51.032;7.082;2023-04-24T04:48:19;3.83;;;3.40;;
4148;SDS011;2088;51.032;7.082;2023-04-24T04:50:48;5.20;;;3.23;;
4148;SDS011;2088;51.032;7.082;2023-04-24T04:53:15;7.50;;;4.23;;
4148;SDS011;2088;51.032;7.082;2023-04-24T04:55:42;4.83;;;3.70;;
4148;SDS011;2088;51.032;7.082;2023-04-24T04:58:09;10.47;;;4.20;;
4148;SDS011;2088;51.032;7.082;2023-04-24T05:00:36;5.43;;;3.30;;
4148;SDS011;2088;51.032;7.082;2023-04-24T05:03:03;3.73;;;3.40;;
4148;SDS011;2088;51.032;7.082;2023-04-24T05:05:30;8.87;;;3.43;;
4148;SDS011;2088;51.032;7.082;2023-04-24T05:07:58;3.40;;;3.00;;
4148;SDS011;2088;51.032;7.082;2023-04-24T05:10:25;6.73;;;3.77;;
4148;SDS011;2088;51.032;7.082;2023-04-24T05:12:52;5.47;;;3.43;;
4148;SDS011;2088;51.032;7.082;2023-04-24T05:15:19;3.00;;;2.77;;
4148;SDS011;2088;51.032;7.082;2023-04-24T05:17:46;4.37;;;3.33;;
4148;SDS011;2088;51.032;7.082;2023-04-24T05:20:13;5.33;;;3.17;;
4148;SDS011;2088;51.032;7.082;2023-04-24T05:22:40;14.40;;;3.90;;
4148;SDS011;2088;51.032;7.082;2023-04-24T05:25:09;13.33;;;4.20;;
4148;SDS011;2088;51.032;7.082;2023-04-24T05:27:37;5.40;;;3.47;;
4148;SDS011;2088;51.032;7.082;2023-04-24T05:30:05;9.67;;;3.60;;
4148;SDS011;2088;51.032;7.082;2023-04-24T05:32:32;3.37;;;2.80;;
4148;SDS011;2088;51.032;7.082;2023-04-24T05:34:59;4.90;;;3.80;;
4148;SDS011;2088;51.032;7.082;2023-04-24T05:37:26;3.03;;;2.70;;
4148;SDS011;2088;51.032;7.082;2023-04-24T05:39:53;5.50;;;3.20;;
4148;SDS011;2088;51.032;7.082;2023-04-24T05:42:22;4.40;;;3.20;;
4148;SDS011;2088;51.032;7.082;2023-04-24T05:44:49;3.87;;;3.10;;
4148;SDS011;2088;51.032;7.082;2023-04-24T05:47:19;4.37;;;3.10;;
4148;SDS011;2088;51.032;7.082;2023-04-24T05:49:46;4.40;;;3.47;;
4148;SDS011;2088;51.032;7.082;2023-04-24T05:52:13;6.07;;;4.33;;
4148;SDS011;2088;51.032;7.082;2023-04-24T05:54:40;6.50;;;3.70;;
4148;SDS011;2088;51.032;7.082;2023-04-24T05:57:07;3.80;;;3.43;;
4148;SDS011;2088;51.032;7.082;2023-04-24T05:59:37;3.93;;;3.53;;
4148;SDS011;2088;51.032;7.082;2023-04-24T06:02:04;7.83;;;4.10;;
4148;SDS011;2088;51.032;7.082;2023-04-24T06:04:31;6.77;;;3.80;;
4148;SDS011;2088;51.032;7.082;2023-04-24T06:06:58;4.10;;;3.70;;
4148;SDS011;2088;51.032;7.082;2023-04-24T06:09:25;14.03;;;5.00;;
4148;SDS011;2088;51.032;7.082;2023-04-24T06:11:52;6.13;;;4.70;;
4148;SDS011;2088;51.032;7.082;2023-04-24T06:14:19;7.17;;;3.80;;
4148;SDS011;2088;51.032;7.082;2023-04-24T06:16:48;6.43;;;4.47;;
4148;SDS011;2088;51.032;7.082;2023-04-24T06:19:15;5.17;;;4.17;;
4148;SDS011;2088;51.032;7.082;2023-04-24T06:21:43;9.13;;;4.70;;
4148;SDS011;2088;51.032;7.082;2023-04-24T06:24:10;6.50;;;4.37;;
4148;SDS011;2088;51.032;7.082;2023-04-24T06:26:37;5.97;;;4.50;;
4148;SDS011;2088;51.032;7.082;2023-04-24T06:29:04;6.47;;;4.20;;
4148;SDS011;2088;51.032;7.082;2023-04-24T06:31:32;4.53;;;4.10;;
4148;SDS011;2088;51.032;7.082;2023-04-24T06:34:03;10.70;;;5.97;;
4148;SDS011;2088;51.032;7.082;2023-04-24T06:36:30;6.07;;;4.50;;
4148;SDS011;2088;51.032;7.082;2023-04-24T06:38:59;9.13;;;4.57;;
4148;SDS011;2088;51.032;7.082;2023-04-24T06:41:26;9.70;;;4.93;;
4148;SDS011;2088;51.032;7.082;2023-04-24T06:43:53;8.03;;;4.90;;
4148;SDS011;2088;51.032;7.082;2023-04-24T06:46:20;6.40;;;4.67;;
4148;SDS011;2088;51.032;7.082;2023-04-24T06:48:48;10.87;;;4.80;;
4148;SDS011;2088;51.032;7.082;2023-04-24T06:51:17;6.60;;;4.70;;
4148;SDS011;2088;51.032;7.082;2023-04-24T06:53:44;8.87;;;5.47;;
4148;SDS011;2088;51.032;7.082;2023-04-24T06:56:11;5.50;;;3.63;;
4148;SDS011;2088;51.032;7.082;2023-04-24T06:58:38;3.27;;;2.87;;
4148;SDS011;2088;51.032;7.082;2023-04-24T07:01:05;3.80;;;2.73;;
4148;SDS011;2088;51.032;7.082;2023-04-24T07:03:32;2.30;;;1.90;;
4148;SDS011;2088;51.032;7.082;2023-04-24T07:05:59;2.23;;;2.03;;
4148;SDS011;2088;51.032;7.082;2023-04-24T07:08:29;4.87;;;2.40;;
4148;SDS011;2088;51.032;7.082;2023-04-24T07:10:58;1.60;;;1.50;;
4148;SDS011;2088;51.032;7.082;2023-04-24T07:13:25;7.37;;;4.40;;
4148;SDS011;2088;51.032;7.082;2023-04-24T07:15:53;3.10;;;1.93;;
4148;SDS011;2088;51.032;7.082;2023-04-24T07:18:21;1.70;;;1.40;;
4148;SDS011;2088;51.032;7.082;2023-04-24T07:20:48;3.33;;;1.87;;
4148;SDS011;2088;51.032;7.082;2023-04-24T07:23:15;3.20;;;1.63;;
4148;SDS011;2088;51.032;7.082;2023-04-24T07:25:44;2.10;;;1.90;;
4148;SDS011;2088;51.032;7.082;2023-04-24T07:28:11;8.10;;;1.83;;
4148;SDS011;2088;51.032;7.082;2023-04-24T07:30:39;2.40;;;2.20;;
4148;SDS011;2088;51.032;7.082;2023-04-24T07:33:06;2.17;;;1.50;;
4148;SDS011;2088;51.032;7.082;2023-04-24T07:35:33;1.70;;;1.60;;
4148;SDS011;2088;51.032;7.082;2023-04-24T07:38:00;3.80;;;1.90;;
4148;SDS011;2088;51.032;7.082;2023-04-24T07:40:27;2.03;;;1.83;;
4148;SDS011;2088;51.032;7.082;2023-04-24T07:42:56;2.23;;;1.70;;
4148;SDS011;2088;51.032;7.082;2023-04-24T07:45:23;3.40;;;1.60;;
4148;SDS011;2088;51.032;7.082;2023-04-24T07:47:51;4.77;;;1.30;;
4148;SDS011;2088;51.032;7.082;2023-04-24T07:50:18;4.47;;;1.40;;
4148;SDS011;2088;51.032;7.082;2023-04-24T07:52:45;1.47;;;1.23;;
4148;SDS011;2088;51.032;7.082;2023-04-24T07:55:12;1.97;;;1.30;;
4148;SDS011;2088;51.032;7.082;2023-04-24T07:57:39;1.23;;;0.97;;
4148;SDS011;2088;51.032;7.082;2023-04-24T08:00:08;1.53;;;1.43;;
4148;SDS011;2088;51.032;7.082;2023-04-24T08:02:36;1.30;;;1.20;;
4148;SDS011;2088;51.032;7.082;2023-04-24T08:05:03;1.50;;;0.90;;
4148;SDS011;2088;51.032;7.082;2023-04-24T08:07:30;1.10;;;1.00;;
4148;SDS011;2088;51.032;7.082;2023-04-24T08:09:58;1.10;;;1.00;;
4148;SDS011;2088;51.032;7.082;2023-04-24T08:12:25;1.17;;;1.07;;
4148;SDS011;2088;51.032;7.082;2023-04-24T08:14:52;1.90;;;1.20;;
4148;SDS011;2088;51.032;7.082;2023-04-24T08:17:20;1.67;;;1.10;;
4148;SDS011;2088;51.032;7.082;2023-04-24T08:19:47;2.00;;;1.10;;
4148;SDS011;2088;51.032;7.082;2023-04-24T08:22:16;3.60;;;1.00;;
4148;SDS011;2088;51.032;7.082;2023-04-24T08:24:43;1.97;;;1.40;;
4148;SDS011;2088;51.032;7.082;2023-04-24T08:27:10;1.50;;;1.30;;
4148;SDS011;2088;51.032;7.082;2023-04-24T08:29:37;3.87;;;1.30;;
4148;SDS011;2088;51.032;7.082;2023-04-24T08:32:04;2.40;;;1.10;;
4148;SDS011;2088;51.032;7.082;2023-04-24T08:34:32;9.80;;;1.10;;
4148;SDS011;2088;51.032;7.082;2023-04-24T08:36:59;2.03;;;1.20;;
4148;SDS011;2088;51.032;7.082;2023-04-24T08:39:26;1.57;;;1.40;;
4148;SDS011;2088;51.032;7.082;2023-04-24T08:41:54;3.43;;;1.50;;
4148;SDS011;2088;51.032;7.082;2023-04-24T08:44:21;1.70;;;1.47;;
4148;SDS011;2088;51.032;7.082;2023-04-24T08:46:48;3.47;;;1.10;;
4148;SDS011;2088;51.032;7.082;2023-04-24T08:49:16;2.30;;;1.40;;
4148;SDS011;2088;51.032;7.082;2023-04-24T08:51:45;2.03;;;1.77;;
4148;SDS011;2088;51.032;7.082;2023-04-24T08:54:13;1.73;;;1.47;;
4148;SDS011;2088;51.032;7.082;2023-04-24T08:56:40;2.07;;;1.50;;
4148;SDS011;2088;51.032;7.082;2023-04-24T08:59:09;1.63;;;1.40;;
4148;SDS011;2088;51.032;7.082;2023-04-24T09:01:37;4.67;;;1.80;;
4148;SDS011;2088;51.032;7.082;2023-04-24T09:04:05;4.13;;;2.13;;
4148;SDS011;2088;51.032;7.082;2023-04-24T09:06:34;2.90;;;2.47;;
4148;SDS011;2088;51.032;7.082;2023-04-24T09:09:03;2.10;;;2.00;;
4148;SDS011;2088;51.032;7.082;2023-04-24T09:11:30;2.70;;;2.50;;
4148;SDS011;2088;51.032;7.082;2023-04-24T09:13:57;2.30;;;2.20;;
4148;SDS011;2088;51.032;7.082;2023-04-24T09:16:25;3.53;;;2.53;;
4148;SDS011;2088;51.032;7.082;2023-04-24T09:18:52;6.23;;;3.23;;
4148;SDS011;2088;51.032;7.082;2023-04-24T09:21:20;4.93;;;3.10;;
4148;SDS011;2088;51.032;7.082;2023-04-24T09:23:48;3.90;;;2.97;;
4148;SDS011;2088;51.032;7.082;2023-04-24T09:26:25;3.53;;;2.97;;
4148;SDS011;2088;51.032;7.082;2023-04-24T09:28:53;7.27;;;3.30;;
4148;SDS011;2088;51.032;7.082;2023-04-24T09:31:20;4.30;;;3.37;;
4148;SDS011;2088;51.032;7.082;2023-04-24T09:33:53;4.97;;;3.10;;
4148;SDS011;2088;51.032;7.082;2023-04-24T09:36:25;3.87;;;3.10;;
4148;SDS011;2088;51.032;7.082;2023-04-24T09:38:53;5.37;;;3.70;;
4148;SDS011;2088;51.032;7.082;2023-04-24T09:41:20;4.53;;;3.37;;
4148;SDS011;2088;51.032;7.082;2023-04-24T09:43:49;6.30;;;3.87;;
4148;SDS011;2088;51.032;7.082;2023-04-24T09:46:16;7.37;;;3.60;;
4148;SDS011;2088;51.032;7.082;2023-04-24T09:48:46;5.30;;;3.63;;
4148;SDS011;2088;51.032;7.082;2023-04-24T09:51:13;8.10;;;4.10;;
4148;SDS011;2088;51.032;7.082;2023-04-24T09:53:44;6.23;;;3.80;;
4148;SDS011;2088;51.032;7.082;2023-04-24T09:56:12;11.60;;;4.00;;
4148;SDS011;2088;51.032;7.082;2023-04-24T09:58:39;8.30;;;4.83;;
4148;SDS011;2088;51.032;7.082;2023-04-24T10:01:08;9.90;;;4.70;;
4148;SDS011;2088;51.032;7.082;2023-04-24T10:03:35;11.07;;;4.80;;
4148;SDS011;2088;51.032;7.082;2023-04-24T10:06:02;8.27;;;5.00;;
4148;SDS011;2088;51.032;7.082;2023-04-24T10:08:33;13.90;;;6.10;;
4148;SDS011;2088;51.032;7.082;2023-04-24T10:11:01;8.50;;;4.73;;
4148;SDS011;2088;51.032;7.082;2023-04-24T10:13:28;8.53;;;4.30;;
4148;SDS011;2088;51.032;7.082;2023-04-24T10:15:56;9.23;;;5.17;;
4148;SDS011;2088;51.032;7.082;2023-04-24T10:18:24;12.50;;;5.10;;
4148;SDS011;2088;51.032;7.082;2023-04-24T10:20:52;9.63;;;6.57;;
4148;SDS011;2088;51.032;7.082;2023-04-24T10:23:21;10.73;;;7.43;;
4148;SDS011;2088;51.032;7.082;2023-04-24T10:25:48;8.70;;;4.90;;
4148;SDS011;2088;51.032;7.082;2023-04-24T10:28:15;16.07;;;5.77;;
4148;SDS011;2088;51.032;7.082;2023-04-24T10:30:43;8.93;;;5.50;;
4148;SDS011;2088;51.032;7.082;2023-04-24T10:33:10;12.20;;;6.00;;
4148;SDS011;2088;51.032;7.082;2023-04-24T10:35:40;16.63;;;5.93;;
4148;SDS011;2088;51.032;7.082;2023-04-24T10:38:09;12.53;;;5.07;;
4148;SDS011;2088;51.032;7.082;2023-04-24T10:40:36;9.60;;;5.40;;
4148;SDS011;2088;51.032;7.082;2023-04-24T10:43:04;12.70;;;4.97;;
4148;SDS011;2088;51.032;7.082;2023-04-24T10:45:33;10.70;;;5.10;;
4148;SDS011;2088;51.032;7.082;2023-04-24T10:48:01;8.63;;;4.90;;
4148;SDS011;2088;51.032;7.082;2023-04-24T10:50:29;11.17;;;4.93;;
4148;SDS011;2088;51.032;7.082;2023-04-24T10:53:06;6.10;;;4.50;;
4148;SDS011;2088;51.032;7.082;2023-04-24T10:55:44;9.83;;;4.10;;
4148;SDS011;2088;51.032;7.082;2023-04-24T10:58:11;8.93;;;4.00;;
4148;SDS011;2088;51.032;7.082;2023-04-24T11:00:40;12.20;;;4.80;;
4148;SDS011;2088;51.032;7.082;2023-04-24T11:03:22;17.90;;;4.77;;
4148;SDS011;2088;51.032;7.082;2023-04-24T11:05:51;8.30;;;3.60;;
4148;SDS011;2088;51.032;7.082;2023-04-24T11:08:24;11.17;;;4.20;;
4148;SDS011;2088;51.032;7.082;2023-04-24T11:10:57;10.07;;;3.70;;
4148;SDS011;2088;51.032;7.082;2023-04-24T11:13:25;6.83;;;3.60;;
4148;SDS011;2088;51.032;7.082;2023-04-24T11:18:37;11.00;;;3.70;;
4148;SDS011;2088;51.032;7.082;2023-04-24T11:21:09;8.10;;;3.97;;
4148;SDS011;2088;51.032;7.082;2023-04-24T11:23:38;20.40;;;3.43;;
4148;SDS011;2088;51.032;7.082;2023-04-24T11:26:11;5.93;;;2.50;;
4148;SDS011;2088;51.032;7.082;2023-04-24T11:28:44;10.23;;;3.27;;
4148;SDS011;2088;51.032;7.082;2023-04-24T11:33:56;8.13;;;3.00;;
4148;SDS011;2088;51.032;7.082;2023-04-24T11:36:23;7.20;;;2.77;;
4148;SDS011;2088;51.032;7.082;2023-04-24T11:38:52;5.83;;;2.30;;
4148;SDS011;2088;51.032;7.082;2023-04-24T11:41:19;3.30;;;2.70;;
4148;SDS011;2088;51.032;7.082;2023-04-24T11:43:47;7.33;;;3.10;;
4148;SDS011;2088;51.032;7.082;2023-04-24T11:46:16;9.70;;;2.90;;
4148;SDS011;2088;51.032;7.082;2023-04-24T11:48:44;9.03;;;3.00;;
4148;SDS011;2088;51.032;7.082;2023-04-24T11:51:11;6.40;;;2.90;;
4148;SDS011;2088;51.032;7.082;2023-04-24T11:53:38;10.53;;;2.97;;
4148;SDS011;2088;51.032;7.082;2023-04-24T11:56:07;4.83;;;3.23;;
4148;SDS011;2088;51.032;7.082;2023-04-24T11:58:35;5.83;;;3.87;;
4148;SDS011;2088;51.032;7.082;2023-04-24T12:01:03;7.73;;;2.97;;
4148;SDS011;2088;51.032;7.082;2023-04-24T12:03:30;10.47;;;3.67;;
4148;SDS011;2088;51.032;7.082;2023-04-24T12:06:04;7.17;;;3.87;;
4148;SDS011;2088;51.032;7.082;2023-04-24T12:08:32;8.63;;;5.03;;
4148;SDS011;2088;51.032;7.082;2023-04-24T12:11:00;7.83;;;3.30;;
4148;SDS011;2088;51.032;7.082;2023-04-24T12:13:28;14.93;;;4.00;;
4148;SDS011;2088;51.032;7.082;2023-04-24T12:15:56;16.20;;;4.50;;
4148;SDS011;2088;51.032;7.082;2023-04-24T12:18:23;11.33;;;3.40;;
4148;SDS011;2088;51.032;7.082;2023-04-24T12:20:50;10.90;;;4.17;;
4148;SDS011;2088;51.032;7.082;2023-04-24T12:23:32;7.93;;;3.53;;
4148;SDS011;2088;51.032;7.082;2023-04-24T12:26:00;10.03;;;4.20;;
4148;SDS011;2088;51.032;7.082;2023-04-24T12:28:35;8.47;;;4.13;;
4148;SDS011;2088;51.032;7.082;2023-04-24T12:31:03;13.40;;;4.43;;
4148;SDS011;2088;51.032;7.082;2023-04-24T12:33:32;15.43;;;4.83;;
4148;SDS011;2088;51.032;7.082;2023-04-24T12:35:59;10.67;;;3.73;;
4148;SDS011;2088;51.032;7.082;2023-04-24T12:38:27;12.17;;;3.63;;
4148;SDS011;2088;51.032;7.082;2023-04-24T12:41:01;10.23;;;3.07;;
4148;SDS011;2088;51.032;7.082;2023-04-24T12:43:29;9.03;;;2.87;;
4148;SDS011;2088;51.032;7.082;2023-04-24T12:45:57;5.53;;;2.83;;
4148;SDS011;2088;51.032;7.082;2023-04-24T12:48:25;9.30;;;3.07;;
4148;SDS011;2088;51.032;7.082;2023-04-24T12:50:52;7.23;;;2.93;;
4148;SDS011;2088;51.032;7.082;2023-04-24T12:53:20;5.73;;;2.70;;
4148;SDS011;2088;51.032;7.082;2023-04-24T12:55:47;6.43;;;2.70;;
4148;SDS011;2088;51.032;7.082;2023-04-24T12:58:17;10.33;;;3.30;;
4148;SDS011;2088;51.032;7.082;2023-04-24T13:00:45;6.40;;;3.73;;
4148;SDS011;2088;51.032;7.082;2023-04-24T13:03:13;6.87;;;3.10;;
4148;SDS011;2088;51.032;7.082;2023-04-24T13:05:41;10.07;;;2.30;;
4148;SDS011;2088;51.032;7.082;2023-04-24T13:08:08;3.80;;;2.50;;
4148;SDS011;2088;51.032;7.082;2023-04-24T13:10:36;6.07;;;3.37;;
4148;SDS011;2088;51.032;7.082;2023-04-24T13:13:03;9.77;;;3.10;;
4148;SDS011;2088;51.032;7.082;2023-04-24T13:15:30;9.20;;;2.67;;
4148;SDS011;2088;51.032;7.082;2023-04-24T13:17:57;5.23;;;3.23;;
4148;SDS011;2088;51.032;7.082;2023-04-24T13:20:25;4.10;;;2.70;;
4148;SDS011;2088;51.032;7.082;2023-04-24T13:22:52;4.13;;;2.77;;
4148;SDS011;2088;51.032;7.082;2023-04-24T13:25:19;9.07;;;2.80;;
4148;SDS011;2088;51.032;7.082;2023-04-24T13:27:48;6.37;;;3.00;;
4148;SDS011;2088;51.032;7.082;2023-04-24T13:30:15;10.50;;;4.00;;
4148;SDS011;2088;51.032;7.082;2023-04-24T13:32:43;3.40;;;2.80;;
4148;SDS011;2088;51.032;7.082;2023-04-24T13:35:10;11.47;;;2.83;;
4148;SDS011;2088;51.032;7.082;2023-04-24T13:37:38;7.60;;;2.60;;
4148;SDS011;2088;51.032;7.082;2023-04-24T13:40:06;8.80;;;2.50;;
4148;SDS011;2088;51.032;7.082;2023-04-24T13:42:34;7.80;;;2.70;;
4148;SDS011;2088;51.032;7.082;2023-04-24T13:45:01;2.70;;;2.47;;
4148;SDS011;2088;51.032;7.082;2023-04-24T13:47:28;5.00;;;2.40;;
4148;SDS011;2088;51.032;7.082;2023-04-24T13:49:55;7.73;;;2.83;;
4148;SDS011;2088;51.032;7.082;2023-04-24T13:52:22;6.10;;;2.67;;
4148;SDS011;2088;51.032;7.082;2023-04-24T13:54:51;6.73;;;2.83;;
4148;SDS011;2088;51.032;7.082;2023-04-24T13:57:18;5.93;;;2.57;;
4148;SDS011;2088;51.032;7.082;2023-04-24T13:59:48;6.03;;;2.83;;
4148;SDS011;2088;51.032;7.082;2023-04-24T14:02:15;6.40;;;2.83;;
4148;SDS011;2088;51.032;7.082;2023-04-24T14:04:42;4.53;;;2.23;;
4148;SDS011;2088;51.032;7.082;2023-04-24T14:07:09;5.83;;;2.40;;
4148;SDS011;2088;51.032;7.082;2023-04-24T14:09:36;4.90;;;2.53;;
4148;SDS011;2088;51.032;7.082;2023-04-24T14:12:05;5.63;;;2.67;;
4148;SDS011;2088;51.032;7.082;2023-04-24T14:14:32;10.40;;;2.50;;
4148;SDS011;2088;51.032;7.082;2023-04-24T14:17:00;4.37;;;1.83;;
4148;SDS011;2088;51.032;7.082;2023-04-24T14:19:27;9.20;;;2.90;;
4148;SDS011;2088;51.032;7.082;2023-04-24T14:21:54;9.40;;;2.70;;
4148;SDS011;2088;51.032;7.082;2023-04-24T14:24:23;3.07;;;2.77;;
4148;SDS011;2088;51.032;7.082;2023-04-24T14:26:50;5.87;;;2.97;;
4148;SDS011;2088;51.032;7.082;2023-04-24T14:29:19;6.63;;;2.63;;
4148;SDS011;2088;51.032;7.082;2023-04-24T14:31:46;7.23;;;2.33;;
4148;SDS011;2088;51.032;7.082;2023-04-24T14:34:13;4.70;;;2.30;;
4148;SDS011;2088;51.032;7.082;2023-04-24T14:36:40;4.33;;;2.70;;
4148;SDS011;2088;51.032;7.082;2023-04-24T14:39:10;3.37;;;2.57;;
4148;SDS011;2088;51.032;7.082;2023-04-24T14:41:37;2.73;;;2.40;;
4148;SDS011;2088;51.032;7.082;2023-04-24T14:44:05;5.70;;;2.77;;
4148;SDS011;2088;51.032;7.082;2023-04-24T14:46:33;4.37;;;2.70;;
4148;SDS011;2088;51.032;7.082;2023-04-24T14:49:00;4.60;;;3.13;;
4148;SDS011;2088;51.032;7.082;2023-04-24T14:51:28;7.17;;;3.00;;
4148;SDS011;2088;51.032;7.082;2023-04-24T14:53:57;3.73;;;2.50;;
4148;SDS011;2088;51.032;7.082;2023-04-24T14:56:25;2.53;;;2.33;;
4148;SDS011;2088;51.032;7.082;2023-04-24T14:58:52;5.50;;;3.07;;
4148;SDS011;2088;51.032;7.082;2023-04-24T15:01:19;4.10;;;2.37;;
4148;SDS011;2088;51.032;7.082;2023-04-24T15:03:48;3.70;;;2.20;;
4148;SDS011;2088;51.032;7.082;2023-04-24T15:06:15;3.60;;;2.07;;
4148;SDS011;2088;51.032;7.082;2023-04-24T15:08:42;7.43;;;2.20;;
4148;SDS011;2088;51.032;7.082;2023-04-24T15:11:09;4.17;;;2.23;;
4148;SDS011;2088;51.032;7.082;2023-04-24T15:13:37;3.40;;;2.07;;
4148;SDS011;2088;51.032;7.082;2023-04-24T15:16:04;3.47;;;1.93;;
4148;SDS011;2088;51.032;7.082;2023-04-24T15:18:32;3.37;;;1.73;;
4148;SDS011;2088;51.032;7.082;2023-04-24T15:21:00;8.30;;;1.83;;